Time,TemperatureF,DewpointF,PressureIn,WindDirection,WindDirectionDegrees,WindSpeedMPH,WindSpeedGustMPH,Humidity,HourlyPrecipIn,Conditions,Clouds,dailyrainin,SoftwareType,DateUTC
2013-07-06 00:01:00,73.1,72.8,30.22,SSW,195,0.0,1.0,99,0.00,,CLR,0.00,VWS V14.00,2013-07-06 04:01:00,
2013-07-06 00:06:00,73.0,72.7,30.22,SSW,195,1.0,2.0,99,0.00,,CLR,0.00,VWS V14.00,2013-07-06 04:06:00,
2013-07-06 00:11:00,72.8,72.5,30.22,South,186,0.0,2.0,99,0.00,,CLR,0.00,VWS V14.00,2013-07-06 04:11:00,
2013-07-06 00:16:00,72.8,72.5,30.22,South,177,1.0,2.0,99,0.00,,CLR,0.00,VWS V14.00,2013-07-06 04:16:00,
2013-07-06 00:21:00,72.6,72.3,30.21,South,173,2.0,2.0,99,0.00,,CLR,0.00,VWS V14.00,2013-07-06 04:21:00,
2013-07-06 00:26:00,72.6,72.3,30.21,South,171,0.0,2.0,99,0.00,,CLR,0.00,VWS V14.00,2013-07-06 04:26:00,
2013-07-06 00:31:00,72.5,72.2,30.21,South,171,0.0,0.0,99,0.00,,CLR,0.00,VWS V14.00,2013-07-06 04:31:00,
2013-07-06 00:36:00,72.5,72.2,30.21,South,171,0.0,1.0,99,0.00,,CLR,0.00,VWS V14.00,2013-07-06 04:36:00,
2013-07-06 00:41:00,72.4,72.1,30.21,South,171,0.0,1.0,99,0.00,,CLR,0.00,VWS V14.00,2013-07-06 04:41:00,
2013-07-06 00:46:00,72.3,72.0,30.21,South,171,0.0,1.0,99,0.00,,CLR,0.00,VWS V14.00,2013-07-06 04:46:00,
2013-07-06 00:51:00,72.2,71.9,30.21,South,171,0.0,1.0,99,0.00,,CLR,0.00,VWS V14.00,2013-07-06 04:51:00,
2013-07-06 00:56:00,72.1,71.8,30.21,South,171,0.0,1.0,99,0.00,,CLR,0.00,VWS V14.00,2013-07-06 04:56:00,
2013-07-06 01:01:00,71.9,71.6,30.21,South,171,0.0,0.0,99,0.00,,CLR,0.00,VWS V14.00,2013-07-06 05:01:00,
2013-07-06 01:06:00,71.9,71.6,30.21,South,171,0.0,0.0,99,0.00,,CLR,0.00,VWS V14.00,2013-07-06 05:06:00,
2013-07-06 01:11:00,71.7,71.4,30.21,South,171,0.0,0.0,99,0.00,,CLR,0.00,VWS V14.00,2013-07-06 05:11:00,
2013-07-06 01:16:00,71.6,71.6,30.21,South,171,0.0,1.0,100,0.00,,CLR,0.00,VWS V14.00,2013-07-06 05:16:00,
2013-07-06 01:21:00,71.6,71.6,30.20,South,171,0.0,1.0,100,0.00,,CLR,0.00,VWS V14.00,2013-07-06 05:21:00,
2013-07-06 01:26:00,71.4,71.1,30.20,South,171,0.0,1.0,99,0.00,,CLR,0.00,VWS V14.00,2013-07-06 05:26:00,
2013-07-06 01:31:00,71.3,71.3,30.20,South,171,0.0,0.0,100,0.00,,CLR,0.00,VWS V14.00,2013-07-06 05:31:00,
2013-07-06 01:36:00,71.3,71.3,30.20,South,171,0.0,0.0,100,0.00,,CLR,0.00,VWS V14.00,2013-07-06 05:36:00,
2013-07-06 01:41:00,71.3,71.3,30.20,South,171,0.0,0.0,100,0.00,,CLR,0.00,VWS V14.00,2013-07-06 05:41:00,
2013-07-06 01:46:00,71.3,71.3,30.21,South,171,0.0,0.0,100,0.00,,CLR,0.00,VWS V14.00,2013-07-06 05:46:00,
2013-07-06 01:51:00,71.3,71.3,30.21,South,171,0.0,0.0,100,0.00,,CLR,0.00,VWS V14.00,2013-07-06 05:51:00,
2013-07-06 01:56:00,71.4,71.4,30.21,South,171,0.0,0.0,100,0.00,,CLR,0.00,VWS V14.00,2013-07-06 05:56:00,
2013-07-06 02:01:00,71.3,71.3,30.20,South,171,0.0,0.0,100,0.00,,CLR,0.00,VWS V14.00,2013-07-06 06:01:00,
2013-07-06 02:06:00,71.3,71.3,30.21,South,171,0.0,0.0,100,0.00,,CLR,0.00,VWS V14.00,2013-07-06 06:06:00,
2013-07-06 02:11:00,71.4,71.4,30.21,South,171,0.0,1.0,100,0.00,,CLR,0.00,VWS V14.00,2013-07-06 06:11:00,
2013-07-06 02:16:00,71.4,71.4,30.21,South,171,1.0,2.0,100,0.00,,CLR,0.00,VWS V14.00,2013-07-06 06:16:00,
2013-07-06 02:21:00,71.5,71.5,30.21,South,175,1.0,3.0,100,0.01,,CLR,0.01,VWS V14.00,2013-07-06 06:21:00,
2013-07-06 02:26:00,71.5,71.5,30.21,South,175,0.0,3.0,100,0.01,,CLR,0.01,VWS V14.00,2013-07-06 06:26:00,
2013-07-06 02:31:00,71.5,71.5,30.21,SSE,168,0.0,2.0,100,0.01,,CLR,0.01,VWS V14.00,2013-07-06 06:31:00,
2013-07-06 02:36:00,71.5,71.5,30.20,SSE,168,0.0,2.0,100,0.01,,CLR,0.01,VWS V14.00,2013-07-06 06:36:00,
2013-07-06 02:41:00,71.5,71.5,30.20,SSE,163,0.0,2.0,100,0.01,,CLR,0.01,VWS V14.00,2013-07-06 06:41:00,
2013-07-06 02:46:00,71.4,71.4,30.21,SSE,163,0.0,2.0,100,0.01,,CLR,0.01,VWS V14.00,2013-07-06 06:46:00,
2013-07-06 02:51:00,71.4,71.4,30.21,SSE,163,0.0,2.0,100,0.01,,CLR,0.01,VWS V14.00,2013-07-06 06:51:00,
2013-07-06 02:56:00,71.3,71.3,30.21,SSE,163,0.0,2.0,100,0.01,,CLR,0.01,VWS V14.00,2013-07-06 06:56:00,
2013-07-06 03:01:00,71.3,71.3,30.21,SSE,163,0.0,0.0,100,0.01,,SCT026,0.01,VWS V14.00,2013-07-06 07:01:00,
2013-07-06 03:07:00,71.2,71.2,30.21,SSE,163,0.0,0.0,100,0.01,,SCT026,0.01,VWS V14.00,2013-07-06 07:07:00,
2013-07-06 03:12:00,71.2,71.2,30.20,SSE,163,0.0,0.0,100,0.01,,SCT026,0.01,VWS V14.00,2013-07-06 07:12:00,
2013-07-06 03:17:00,71.1,71.1,30.21,SSE,163,0.0,0.0,100,0.01,,SCT026,0.01,VWS V14.00,2013-07-06 07:17:00,
2013-07-06 03:22:00,71.0,71.0,30.21,SSE,163,0.0,0.0,100,0.01,,SCT026,0.01,VWS V14.00,2013-07-06 07:22:00,
2013-07-06 03:27:00,70.9,70.9,30.20,SSE,163,0.0,0.0,100,0.01,,SCT026,0.01,VWS V14.00,2013-07-06 07:27:00,
2013-07-06 03:32:00,70.8,70.8,30.20,SSE,163,0.0,0.0,100,0.00,,SCT026,0.01,VWS V14.00,2013-07-06 07:32:00,
2013-07-06 03:37:00,70.8,70.8,30.20,SSE,163,0.0,0.0,100,0.00,,SCT026,0.01,VWS V14.00,2013-07-06 07:37:00,
2013-07-06 03:42:00,70.7,70.7,30.20,SSE,163,0.0,2.0,100,0.00,,SCT026,0.01,VWS V14.00,2013-07-06 07:42:00,
2013-07-06 03:47:00,70.7,70.7,30.20,SSE,163,1.0,2.0,100,0.00,,SCT026,0.01,VWS V14.00,2013-07-06 07:47:00,
2013-07-06 03:52:00,70.7,70.7,30.20,SSE,164,0.0,2.0,100,0.00,,SCT026,0.01,VWS V14.00,2013-07-06 07:52:00,
2013-07-06 03:57:00,70.6,70.6,30.20,SSE,150,1.0,3.0,100,0.00,,SCT026,0.01,VWS V14.00,2013-07-06 07:57:00,
2013-07-06 04:02:00,70.7,70.7,30.20,SSE,151,0.0,0.0,100,0.00,,CLR,0.01,VWS V14.00,2013-07-06 08:02:00,
2013-07-06 04:07:00,70.6,70.6,30.20,SSE,151,0.0,0.0,100,0.00,,CLR,0.01,VWS V14.00,2013-07-06 08:07:00,
2013-07-06 04:12:00,70.7,70.7,30.20,SSE,148,0.0,3.0,100,0.00,,CLR,0.01,VWS V14.00,2013-07-06 08:12:00,
2013-07-06 04:17:00,70.5,70.5,30.19,SSE,148,0.0,3.0,100,0.00,,CLR,0.01,VWS V14.00,2013-07-06 08:17:00,
2013-07-06 04:22:00,70.4,70.4,30.19,SSE,148,0.0,3.0,100,0.00,,CLR,0.01,VWS V14.00,2013-07-06 08:22:00,
2013-07-06 04:27:00,70.2,70.2,30.20,SSE,148,0.0,3.0,100,0.00,,CLR,0.01,VWS V14.00,2013-07-06 08:27:00,
2013-07-06 04:32:00,69.9,69.9,30.20,SSE,148,0.0,0.0,100,0.00,,CLR,0.01,VWS V14.00,2013-07-06 08:32:00,
2013-07-06 04:37:00,69.8,69.8,30.19,SSE,148,0.0,0.0,100,0.00,,CLR,0.01,VWS V14.00,2013-07-06 08:37:00,
2013-07-06 04:42:00,69.6,69.6,30.20,SSE,148,0.0,0.0,100,0.00,,CLR,0.01,VWS V14.00,2013-07-06 08:42:00,
2013-07-06 04:47:00,69.6,69.6,30.20,SSE,148,0.0,0.0,100,0.00,,CLR,0.01,VWS V14.00,2013-07-06 08:47:00,
2013-07-06 04:52:00,69.4,69.4,30.20,SSE,148,0.0,0.0,100,0.00,,CLR,0.01,VWS V14.00,2013-07-06 08:52:00,
2013-07-06 04:57:00,69.4,69.4,30.20,SSE,151,1.0,2.0,100,0.00,,CLR,0.01,VWS V14.00,2013-07-06 08:57:00,
2013-07-06 05:02:00,69.3,69.3,30.20,SSE,161,2.0,2.0,100,0.00,,BKN015,0.01,VWS V14.00,2013-07-06 09:02:00,
2013-07-06 05:07:00,69.4,69.4,30.20,SSE,161,0.0,2.0,100,0.00,,BKN015,0.01,VWS V14.00,2013-07-06 09:07:00,
2013-07-06 05:12:00,69.6,69.6,30.20,SSE,162,2.0,2.0,100,0.00,,BKN015,0.01,VWS V14.00,2013-07-06 09:12:00,
2013-07-06 05:17:00,69.7,69.7,30.20,SSE,166,2.0,4.0,100,0.00,,BKN015,0.01,VWS V14.00,2013-07-06 09:17:00,
2013-07-06 05:22:00,70.0,70.0,30.21,SSW,201,0.0,4.0,100,0.00,,BKN015,0.01,VWS V14.00,2013-07-06 09:22:00,
2013-07-06 05:27:00,70.1,70.1,30.21,SW,217,0.0,4.0,100,0.00,,BKN015,0.01,VWS V14.00,2013-07-06 09:27:00,
2013-07-06 05:32:00,70.2,70.2,30.21,South,171,0.0,1.0,100,0.00,,BKN015,0.01,VWS V14.00,2013-07-06 09:32:00,
2013-07-06 05:37:00,70.2,70.2,30.21,South,171,0.0,1.0,100,0.00,,BKN015,0.01,VWS V14.00,2013-07-06 09:37:00,
2013-07-06 05:42:00,70.1,70.1,30.21,South,171,0.0,1.0,100,0.00,,BKN015,0.01,VWS V14.00,2013-07-06 09:42:00,
2013-07-06 05:47:00,69.8,69.8,30.21,South,171,0.0,1.0,100,0.00,,BKN015,0.01,VWS V14.00,2013-07-06 09:47:00,
2013-07-06 05:52:00,69.7,69.7,30.21,South,171,0.0,1.0,100,0.00,,BKN015,0.01,VWS V14.00,2013-07-06 09:52:00,
2013-07-06 05:57:00,69.7,69.7,30.22,South,171,0.0,1.0,100,0.00,,BKN015,0.01,VWS V14.00,2013-07-06 09:57:00,
2013-07-06 06:02:00,69.6,69.6,30.22,South,171,0.0,0.0,100,0.01,,FEW019,0.02,VWS V14.00,2013-07-06 10:02:00,
2013-07-06 06:07:00,69.5,69.5,30.22,South,171,0.0,0.0,100,0.01,,FEW019,0.02,VWS V14.00,2013-07-06 10:07:00,
2013-07-06 06:12:00,69.4,69.4,30.22,South,171,0.0,0.0,100,0.01,,FEW019,0.02,VWS V14.00,2013-07-06 10:12:00,
2013-07-06 06:17:00,69.2,69.2,30.22,South,171,0.0,0.0,100,0.01,,FEW019,0.02,VWS V14.00,2013-07-06 10:17:00,
2013-07-06 06:22:00,69.0,69.0,30.22,South,171,0.0,0.0,100,0.01,,FEW019,0.02,VWS V14.00,2013-07-06 10:22:00,
2013-07-06 06:27:00,68.9,68.9,30.22,South,171,0.0,0.0,100,0.01,,FEW019,0.02,VWS V14.00,2013-07-06 10:27:00,
2013-07-06 06:32:00,68.9,68.9,30.23,South,171,0.0,0.0,100,0.01,,FEW019,0.02,VWS V14.00,2013-07-06 10:32:00,
2013-07-06 06:37:00,69.0,69.0,30.23,South,171,0.0,0.0,100,0.01,,FEW019,0.02,VWS V14.00,2013-07-06 10:37:00,
2013-07-06 06:42:00,69.3,69.3,30.23,South,171,0.0,0.0,100,0.01,,FEW019,0.02,VWS V14.00,2013-07-06 10:42:00,
2013-07-06 06:47:00,69.5,69.5,30.23,South,171,0.0,0.0,100,0.01,,FEW019,0.02,VWS V14.00,2013-07-06 10:47:00,
2013-07-06 06:52:00,69.7,69.7,30.23,South,171,0.0,0.0,100,0.01,,FEW019,0.02,VWS V14.00,2013-07-06 10:52:00,
2013-07-06 06:57:00,69.9,69.9,30.23,South,171,0.0,0.0,100,0.01,,FEW019,0.02,VWS V14.00,2013-07-06 10:57:00,
2013-07-06 07:02:00,69.9,69.9,30.23,South,171,0.0,0.0,100,0.01,,BKN026,0.02,VWS V14.00,2013-07-06 11:02:00,
2013-07-06 07:07:00,70.2,70.2,30.23,South,171,0.0,0.0,100,0.01,,BKN026,0.02,VWS V14.00,2013-07-06 11:07:00,
2013-07-06 07:12:00,70.2,70.2,30.23,South,171,0.0,0.0,100,0.01,,BKN026,0.02,VWS V14.00,2013-07-06 11:12:00,
2013-07-06 07:17:00,70.4,70.4,30.23,South,171,0.0,0.0,100,0.01,,BKN026,0.02,VWS V14.00,2013-07-06 11:17:00,
2013-07-06 07:22:00,70.6,70.6,30.23,South,171,0.0,0.0,100,0.01,,BKN026,0.02,VWS V14.00,2013-07-06 11:22:00,
2013-07-06 07:27:00,70.8,70.8,30.23,South,171,0.0,0.0,100,0.01,,BKN026,0.02,VWS V14.00,2013-07-06 11:27:00,
2013-07-06 07:32:00,71.0,71.0,30.23,South,171,0.0,1.0,100,0.00,,BKN026,0.02,VWS V14.00,2013-07-06 11:32:00,
2013-07-06 07:37:00,71.1,71.1,30.23,South,171,0.0,2.0,100,0.00,,BKN026,0.02,VWS V14.00,2013-07-06 11:37:00,
2013-07-06 07:42:00,71.3,71.3,30.23,South,171,1.0,2.0,100,0.00,,BKN026,0.02,VWS V14.00,2013-07-06 11:42:00,
2013-07-06 07:47:00,71.5,71.5,30.23,SSW,198,3.0,3.0,100,0.00,,BKN026,0.02,VWS V14.00,2013-07-06 11:47:00,
2013-07-06 07:52:00,71.6,71.6,30.23,SSW,192,1.0,3.0,100,0.00,,BKN026,0.02,VWS V14.00,2013-07-06 11:52:00,
2013-07-06 07:57:00,71.8,71.8,30.23,South,190,1.0,3.0,100,0.00,,BKN026,0.02,VWS V14.00,2013-07-06 11:57:00,
2013-07-06 08:02:00,72.0,72.0,30.23,SSE,148,1.0,3.0,100,0.00,,BKN026,0.02,VWS V14.00,2013-07-06 12:02:00,
2013-07-06 08:07:00,72.1,72.1,30.24,SSE,163,2.0,3.0,100,0.00,,BKN026,0.02,VWS V14.00,2013-07-06 12:07:00,
2013-07-06 08:12:00,72.3,72.3,30.24,SSE,167,2.0,3.0,100,0.00,,BKN026,0.02,VWS V14.00,2013-07-06 12:12:00,
2013-07-06 08:17:00,72.4,72.4,30.24,SSE,168,1.0,3.0,100,0.00,,BKN026,0.02,VWS V14.00,2013-07-06 12:17:00,
2013-07-06 08:22:00,72.5,72.5,30.24,South,186,2.0,4.0,100,0.00,,BKN026,0.02,VWS V14.00,2013-07-06 12:22:00,
2013-07-06 08:27:00,72.6,72.6,30.24,SW,225,4.0,5.0,100,0.00,,BKN026,0.02,VWS V14.00,2013-07-06 12:27:00,
2013-07-06 08:32:00,72.7,72.7,30.24,SSE,157,0.0,5.0,100,0.00,,BKN026,0.02,VWS V14.00,2013-07-06 12:32:00,
2013-07-06 08:37:00,72.8,72.8,30.24,SSW,195,3.0,7.0,100,0.00,,BKN026,0.02,VWS V14.00,2013-07-06 12:37:00,
2013-07-06 08:42:00,73.2,73.2,30.24,South,186,4.0,7.0,100,0.00,,BKN026,0.02,VWS V14.00,2013-07-06 12:42:00,
2013-07-06 08:47:00,73.3,73.3,30.24,SE,142,5.0,7.0,100,0.00,,BKN026,0.02,VWS V14.00,2013-07-06 12:47:00,
2013-07-06 08:52:00,73.4,73.4,30.24,SW,215,4.0,8.0,100,0.00,,BKN026,0.02,VWS V14.00,2013-07-06 12:52:00,
2013-07-06 08:57:00,73.6,73.6,30.24,SSE,155,3.0,8.0,100,0.00,,BKN026,0.02,VWS V14.00,2013-07-06 12:57:00,
2013-07-06 09:02:00,73.7,73.7,30.25,SSW,201,5.0,6.0,100,0.00,,BKN028,0.02,VWS V14.00,2013-07-06 13:02:00,
2013-07-06 09:07:00,73.9,73.9,30.25,South,178,6.0,8.0,100,0.00,,BKN028,0.02,VWS V14.00,2013-07-06 13:07:00,
2013-07-06 09:12:00,73.9,73.6,30.25,SSE,157,4.0,8.0,99,0.00,,BKN028,0.02,VWS V14.00,2013-07-06 13:12:00,
2013-07-06 09:17:00,74.1,74.1,30.25,SSW,194,2.0,8.0,100,0.00,,BKN028,0.02,VWS V14.00,2013-07-06 13:17:00,
2013-07-06 09:22:00,74.2,73.9,30.24,SSE,155,3.0,8.0,99,0.00,,BKN028,0.02,VWS V14.00,2013-07-06 13:22:00,
2013-07-06 09:27:00,74.1,73.8,30.25,SE,126,5.0,8.0,99,0.00,,BKN028,0.02,VWS V14.00,2013-07-06 13:27:00,
2013-07-06 09:32:00,74.0,73.7,30.25,SW,215,6.0,9.0,99,0.00,,BKN028,0.02,VWS V14.00,2013-07-06 13:32:00,
2013-07-06 09:37:00,74.3,74.0,30.25,SSE,161,0.0,9.0,99,0.00,,BKN028,0.02,VWS V14.00,2013-07-06 13:37:00,
2013-07-06 09:42:00,74.9,74.6,30.25,SSW,196,6.0,9.0,99,0.00,,BKN028,0.02,VWS V14.00,2013-07-06 13:42:00,
2013-07-06 09:47:00,74.9,74.0,30.25,SSW,211,4.0,9.0,97,0.00,,BKN028,0.02,VWS V14.00,2013-07-06 13:47:00,
2013-07-06 09:52:00,75.0,74.1,30.25,SW,223,6.0,9.0,97,0.00,,BKN028,0.02,VWS V14.00,2013-07-06 13:52:00,
2013-07-06 09:57:00,75.1,74.2,30.25,SSW,201,4.0,10.0,97,0.00,,BKN028,0.02,VWS V14.00,2013-07-06 13:57:00,
2013-07-06 10:02:00,75.6,74.7,30.25,SSE,148,3.0,7.0,97,0.00,,OVC018,0.02,VWS V14.00,2013-07-06 14:02:00,
2013-07-06 10:07:00,75.7,73.8,30.25,SW,225,4.0,11.0,94,0.00,,OVC018,0.02,VWS V14.00,2013-07-06 14:07:00,
2013-07-06 10:12:00,75.9,74.4,30.25,SW,216,4.0,11.0,95,0.00,,OVC018,0.02,VWS V14.00,2013-07-06 14:12:00,
2013-07-06 10:17:00,76.4,74.9,30.25,South,182,6.0,11.0,95,0.00,,OVC018,0.02,VWS V14.00,2013-07-06 14:17:00,
2013-07-06 10:22:00,76.5,74.0,30.24,SSW,192,7.0,11.0,92,0.00,,OVC018,0.02,VWS V14.00,2013-07-06 14:22:00,
2013-07-06 10:27:00,76.5,74.7,30.24,South,182,3.0,11.0,94,0.00,,OVC018,0.02,VWS V14.00,2013-07-06 14:27:00,
2013-07-06 10:32:00,76.6,74.4,30.24,SSE,159,3.0,6.0,93,0.00,,OVC018,0.02,VWS V14.00,2013-07-06 14:32:00,
2013-07-06 10:37:00,76.9,74.7,30.24,SW,226,4.0,6.0,93,0.00,,OVC018,0.02,VWS V14.00,2013-07-06 14:37:00,
2013-07-06 10:42:00,77.7,75.5,30.24,SW,226,6.0,7.0,93,0.00,,OVC018,0.02,VWS V14.00,2013-07-06 14:42:00,
2013-07-06 10:47:00,78.3,75.1,30.24,WSW,254,2.0,8.0,90,0.00,,OVC018,0.02,VWS V14.00,2013-07-06 14:47:00,
2013-07-06 10:52:00,79.0,75.2,30.25,SW,215,7.0,9.0,88,0.00,,OVC018,0.02,VWS V14.00,2013-07-06 14:52:00,
2013-07-06 10:57:00,78.9,74.7,30.25,SW,229,3.0,9.0,87,0.00,,OVC018,0.02,VWS V14.00,2013-07-06 14:57:00,
2013-07-06 11:02:00,79.2,74.3,30.25,South,175,3.0,10.0,85,0.00,,SCT036,0.02,VWS V14.00,2013-07-06 15:02:00,
2013-07-06 11:07:00,79.2,73.9,30.24,SW,224,6.0,11.0,84,0.00,,SCT036,0.02,VWS V14.00,2013-07-06 15:07:00,
2013-07-06 11:12:00,78.9,74.0,30.24,WSW,238,4.0,11.0,85,0.00,,SCT036,0.02,VWS V14.00,2013-07-06 15:12:00,
2013-07-06 11:17:00,79.1,74.2,30.24,WSW,240,1.0,11.0,85,0.00,,SCT036,0.02,VWS V14.00,2013-07-06 15:17:00,
2013-07-06 11:22:00,79.7,74.4,30.24,SSW,210,7.0,11.0,84,0.00,,SCT036,0.02,VWS V14.00,2013-07-06 15:22:00,
2013-07-06 11:28:00,80.2,74.9,30.24,SSE,160,3.0,11.0,84,0.00,,SCT036,0.02,VWS V14.00,2013-07-06 15:28:00,
2013-07-06 11:33:00,80.4,74.0,30.24,SW,234,6.0,6.0,81,0.00,,SCT036,0.02,VWS V14.00,2013-07-06 15:33:00,
2013-07-06 11:38:00,81.0,74.6,30.24,SSE,148,4.0,9.0,81,0.00,,SCT036,0.02,VWS V14.00,2013-07-06 15:38:00,
2013-07-06 11:43:00,81.2,74.8,30.24,SW,229,5.0,9.0,81,0.00,,SCT036,0.02,VWS V14.00,2013-07-06 15:43:00,
2013-07-06 11:48:00,81.2,74.8,30.24,SSW,196,7.0,10.0,81,0.00,,SCT036,0.02,VWS V14.00,2013-07-06 15:48:00,
2013-07-06 11:53:00,81.3,73.8,30.24,SSW,205,0.0,10.0,78,0.00,,SCT036,0.02,VWS V14.00,2013-07-06 15:53:00,
2013-07-06 11:58:00,81.1,73.2,30.24,SE,137,7.0,10.0,77,0.00,,SCT036,0.02,VWS V14.00,2013-07-06 15:58:00,
2013-07-06 12:03:00,81.7,75.3,30.24,South,175,4.0,9.0,81,0.00,,FEW028,0.02,VWS V14.00,2013-07-06 16:03:00,
2013-07-06 12:08:00,82.2,75.8,30.24,SW,215,4.0,9.0,81,0.00,,FEW028,0.02,VWS V14.00,2013-07-06 16:08:00,
2013-07-06 12:13:00,82.4,74.9,30.24,South,187,5.0,10.0,78,0.00,,FEW028,0.02,VWS V14.00,2013-07-06 16:13:00,
2013-07-06 12:18:00,82.2,73.5,30.23,SW,236,5.0,11.0,75,0.00,,FEW028,0.02,VWS V14.00,2013-07-06 16:18:00,
2013-07-06 12:23:00,82.5,74.2,30.24,SSE,161,6.0,11.0,76,0.00,,FEW028,0.02,VWS V14.00,2013-07-06 16:23:00,
2013-07-06 12:28:00,82.0,73.7,30.23,SSW,193,6.0,12.0,76,0.00,,FEW028,0.02,VWS V14.00,2013-07-06 16:28:00,
2013-07-06 12:33:00,81.8,74.3,30.23,SW,224,5.0,7.0,78,0.00,,FEW028,0.02,VWS V14.00,2013-07-06 16:33:00,
2013-07-06 12:38:00,82.1,73.4,30.23,SW,224,5.0,9.0,75,0.00,,FEW028,0.02,VWS V14.00,2013-07-06 16:38:00,
2013-07-06 12:43:00,82.1,73.0,30.23,SW,236,5.0,9.0,74,0.00,,FEW028,0.02,VWS V14.00,2013-07-06 16:43:00,
2013-07-06 12:49:00,82.7,74.0,30.22,SW,215,4.0,9.0,75,0.00,,FEW028,0.02,VWS V14.00,2013-07-06 16:49:00,
2013-07-06 12:54:00,82.6,73.5,30.22,West,267,9.0,11.0,74,0.00,,FEW028,0.02,VWS V14.00,2013-07-06 16:54:00,
2013-07-06 12:59:00,82.7,75.5,30.22,SSW,195,3.0,12.0,79,0.00,,FEW028,0.02,VWS V14.00,2013-07-06 16:59:00,
2013-07-06 13:04:00,83.0,73.5,30.22,South,178,3.0,7.0,73,0.00,,CLR,0.02,VWS V14.00,2013-07-06 17:04:00,
2013-07-06 13:09:00,83.1,75.5,30.22,SE,140,5.0,10.0,78,0.00,,CLR,0.02,VWS V14.00,2013-07-06 17:09:00,
2013-07-06 13:14:00,83.2,73.2,30.21,ESE,116,3.0,10.0,72,0.00,,CLR,0.02,VWS V14.00,2013-07-06 17:14:00,
2013-07-06 13:19:00,83.5,73.5,30.21,SE,142,9.0,12.0,72,0.00,,CLR,0.02,VWS V14.00,2013-07-06 17:19:00,
2013-07-06 13:24:00,83.7,74.1,30.21,SSE,152,5.0,12.0,73,0.00,,CLR,0.02,VWS V14.00,2013-07-06 17:24:00,
2013-07-06 13:30:00,83.8,73.4,30.21,NW,311,2.0,12.0,71,0.00,,CLR,0.02,VWS V14.00,2013-07-06 17:30:00,
2013-07-06 13:35:00,83.8,73.4,30.20,SSE,152,3.0,7.0,71,0.00,,CLR,0.02,VWS V14.00,2013-07-06 17:35:00,
2013-07-06 13:40:00,83.6,73.6,30.20,SSW,200,5.0,9.0,72,0.00,,CLR,0.02,VWS V14.00,2013-07-06 17:40:00,
2013-07-06 13:45:00,83.2,74.1,30.20,WSW,241,6.0,9.0,74,0.00,,CLR,0.02,VWS V14.00,2013-07-06 17:45:00,
2013-07-06 13:50:00,82.7,73.2,30.20,SSW,200,2.0,9.0,73,0.00,,CLR,0.02,VWS V14.00,2013-07-06 17:50:00,
2013-07-06 13:55:00,82.6,73.9,30.20,South,184,0.0,9.0,75,0.00,,CLR,0.02,VWS V14.00,2013-07-06 17:55:00,
2013-07-06 14:01:00,82.8,75.2,30.19,SW,226,4.0,5.0,78,0.00,,FEW065,0.02,VWS V14.00,2013-07-06 18:01:00,
2013-07-06 14:06:00,83.6,74.0,30.19,SSW,208,1.0,7.0,73,0.00,,FEW065,0.02,VWS V14.00,2013-07-06 18:06:00,
2013-07-06 14:11:00,83.9,75.5,30.19,SSE,164,1.0,7.0,76,0.00,,FEW065,0.02,VWS V14.00,2013-07-06 18:11:00,
2013-07-06 14:16:00,83.9,75.1,30.18,ESE,110,0.0,7.0,75,0.00,,FEW065,0.02,VWS V14.00,2013-07-06 18:16:00,
2013-07-06 14:21:00,84.1,73.7,30.18,SE,131,2.0,8.0,71,0.00,,FEW065,0.02,VWS V14.00,2013-07-06 18:21:00,
2013-07-06 14:27:00,84.9,75.3,30.18,SW,232,7.0,8.0,73,0.00,,FEW065,0.02,VWS V14.00,2013-07-06 18:27:00,
2013-07-06 14:32:00,85.4,73.2,30.18,South,181,5.0,7.0,67,0.00,,FEW065,0.02,VWS V14.00,2013-07-06 18:32:00,
2013-07-06 14:37:00,85.0,74.6,30.18,SE,140,3.0,7.0,71,0.00,,FEW065,0.02,VWS V14.00,2013-07-06 18:37:00,
2013-07-06 14:42:00,84.6,73.3,30.17,South,190,3.0,8.0,69,0.00,,FEW065,0.02,VWS V14.00,2013-07-06 18:42:00,
2013-07-06 14:47:00,84.4,73.6,30.17,SSE,147,2.0,8.0,70,0.00,,FEW065,0.02,VWS V14.00,2013-07-06 18:47:00,
2013-07-06 14:52:00,85.0,73.7,30.17,SSW,200,3.0,8.0,69,0.00,,FEW065,0.02,VWS V14.00,2013-07-06 18:52:00,
2013-07-06 14:57:00,85.8,74.5,30.17,SW,223,3.0,10.0,69,0.00,,FEW065,0.02,VWS V14.00,2013-07-06 18:57:00,
2013-07-06 15:02:00,86.3,74.1,30.17,SW,232,11.0,14.0,67,0.00,,SCT070,0.02,VWS V14.00,2013-07-06 19:02:00,
2013-07-06 15:08:00,86.6,72.5,30.17,WSW,250,4.0,14.0,63,0.00,,SCT070,0.02,VWS V14.00,2013-07-06 19:08:00,
2013-07-06 15:13:00,86.6,74.8,30.17,SSW,205,5.0,14.0,68,0.00,,SCT070,0.02,VWS V14.00,2013-07-06 19:13:00,
2013-07-06 15:18:00,85.8,73.1,30.17,SSW,209,7.0,14.0,66,0.00,,SCT070,0.02,VWS V14.00,2013-07-06 19:18:00,
2013-07-06 15:23:00,85.6,72.9,30.17,SSW,212,3.0,14.0,66,0.00,,SCT070,0.02,VWS V14.00,2013-07-06 19:23:00,
2013-07-06 15:28:00,85.8,73.6,30.16,SSW,196,0.0,14.0,67,0.00,,SCT070,0.02,VWS V14.00,2013-07-06 19:28:00,
2013-07-06 15:33:00,85.9,75.4,30.16,SSE,162,7.0,8.0,71,0.00,,SCT070,0.02,VWS V14.00,2013-07-06 19:33:00,
2013-07-06 15:38:00,85.5,73.7,30.16,SE,145,5.0,9.0,68,0.00,,SCT070,0.02,VWS V14.00,2013-07-06 19:38:00,
2013-07-06 15:43:00,85.4,73.6,30.16,SE,134,4.0,12.0,68,0.00,,SCT070,0.02,VWS V14.00,2013-07-06 19:43:00,
2013-07-06 15:48:00,85.3,74.0,30.16,SSW,192,5.0,12.0,69,0.00,,SCT070,0.02,VWS V14.00,2013-07-06 19:48:00,
2013-07-06 15:53:00,85.4,74.1,30.16,SSW,205,3.0,12.0,69,0.00,,SCT070,0.02,VWS V14.00,2013-07-06 19:53:00,
2013-07-06 15:58:00,86.1,74.3,30.15,SW,225,3.0,12.0,68,0.00,,SCT070,0.02,VWS V14.00,2013-07-06 19:58:00,
2013-07-06 16:04:00,86.6,74.8,30.15,SSW,210,5.0,9.0,68,0.00,,SCT040,0.02,VWS V14.00,2013-07-06 20:04:00,
2013-07-06 16:09:00,86.5,74.7,30.15,ESE,113,8.0,9.0,68,0.00,,SCT040,0.02,VWS V14.00,2013-07-06 20:09:00,
2013-07-06 16:14:00,86.6,74.8,30.15,SSE,163,2.0,9.0,68,0.00,,SCT040,0.02,VWS V14.00,2013-07-06 20:14:00,
2013-07-06 16:19:00,87.1,74.4,30.15,South,169,5.0,11.0,66,0.00,,SCT040,0.02,VWS V14.00,2013-07-06 20:19:00,
2013-07-06 16:24:00,86.7,74.0,30.15,SSE,150,4.0,11.0,66,0.00,,SCT040,0.02,VWS V14.00,2013-07-06 20:24:00,
2013-07-06 16:29:00,86.2,74.8,30.15,South,182,4.0,11.0,69,0.00,,SCT040,0.02,VWS V14.00,2013-07-06 20:29:00,
2013-07-06 16:34:00,86.4,74.2,30.14,SE,146,6.0,9.0,67,0.00,,SCT040,0.02,VWS V14.00,2013-07-06 20:34:00,
2013-07-06 16:39:00,86.4,73.2,30.14,South,172,2.0,10.0,65,0.00,,SCT040,0.02,VWS V14.00,2013-07-06 20:39:00,
2013-07-06 16:44:00,86.3,73.2,30.14,SSW,192,5.0,10.0,65,0.00,,SCT040,0.02,VWS V14.00,2013-07-06 20:44:00,
2013-07-06 16:49:00,86.0,75.1,30.14,SSW,211,3.0,10.0,70,0.00,,SCT040,0.02,VWS V14.00,2013-07-06 20:49:00,
2013-07-06 16:54:00,86.5,75.1,30.14,ESE,102,4.0,10.0,69,0.00,,SCT040,0.02,VWS V14.00,2013-07-06 20:54:00,
2013-07-06 17:00:00,86.9,73.3,30.14,East,98,7.0,10.0,64,0.00,,SCT040,0.02,VWS V14.00,2013-07-06 21:00:00,
2013-07-06 17:05:00,86.8,73.6,30.14,SSE,148,7.0,9.0,65,0.00,,SCT040,0.02,VWS V14.00,2013-07-06 21:05:00,
2013-07-06 17:10:00,86.4,73.7,30.14,South,187,8.0,10.0,66,0.00,,SCT040,0.02,VWS V14.00,2013-07-06 21:10:00,
2013-07-06 17:15:00,85.8,73.6,30.14,SSW,207,4.0,10.0,67,0.00,,SCT040,0.02,VWS V14.00,2013-07-06 21:15:00,
2013-07-06 17:20:00,86.5,73.8,30.14,SSW,200,2.0,10.0,66,0.00,,SCT040,0.02,VWS V14.00,2013-07-06 21:20:00,
2013-07-06 17:25:00,87.0,73.8,30.13,SE,138,1.0,10.0,65,0.00,,SCT040,0.02,VWS V14.00,2013-07-06 21:25:00,
2013-07-06 17:30:00,87.0,73.8,30.13,SSW,196,4.0,10.0,65,0.00,,SCT040,0.02,VWS V14.00,2013-07-06 21:30:00,
2013-07-06 17:35:00,86.7,73.1,30.13,South,184,3.0,9.0,64,0.00,,SCT040,0.02,VWS V14.00,2013-07-06 21:35:00,
2013-07-06 17:40:00,86.2,73.5,30.13,SSW,197,6.0,9.0,66,0.00,,SCT040,0.02,VWS V14.00,2013-07-06 21:40:00,
2013-07-06 17:45:00,86.0,73.8,30.13,SSW,194,3.0,9.0,67,0.00,,SCT040,0.02,VWS V14.00,2013-07-06 21:45:00,
2013-07-06 17:50:00,85.8,73.6,30.13,SW,222,2.0,9.0,67,0.00,,SCT040,0.02,VWS V14.00,2013-07-06 21:50:00,
2013-07-06 17:56:00,85.4,72.3,30.13,South,190,4.0,10.0,65,0.00,,SCT040,0.02,VWS V14.00,2013-07-06 21:56:00,
2013-07-06 18:01:00,85.3,73.6,30.13,SW,215,3.0,4.0,68,0.00,,SCT055,0.02,VWS V14.00,2013-07-06 22:01:00,
2013-07-06 18:06:00,85.6,73.4,30.12,SSE,161,2.0,7.0,67,0.00,,SCT055,0.02,VWS V14.00,2013-07-06 22:06:00,
2013-07-06 18:11:00,85.3,74.0,30.12,SW,219,2.0,7.0,69,0.00,,SCT055,0.02,VWS V14.00,2013-07-06 22:11:00,
2013-07-06 18:16:00,85.1,73.8,30.12,South,178,2.0,7.0,69,0.00,,SCT055,0.02,VWS V14.00,2013-07-06 22:16:00,
2013-07-06 18:21:00,85.2,74.7,30.12,SSE,148,3.0,7.0,71,0.00,,SCT055,0.02,VWS V14.00,2013-07-06 22:21:00,
2013-07-06 18:26:00,85.2,74.7,30.12,South,177,3.0,7.0,71,0.00,,SCT055,0.02,VWS V14.00,2013-07-06 22:26:00,
2013-07-06 18:31:00,85.1,74.6,30.12,South,184,0.0,2.0,71,0.00,,SCT055,0.02,VWS V14.00,2013-07-06 22:31:00,
2013-07-06 18:36:00,85.3,74.4,30.12,South,173,3.0,6.0,70,0.00,,SCT055,0.02,VWS V14.00,2013-07-06 22:36:00,
2013-07-06 18:41:00,85.4,74.1,30.12,South,181,2.0,7.0,69,0.00,,SCT055,0.02,VWS V14.00,2013-07-06 22:41:00,
2013-07-06 18:46:00,85.5,74.2,30.12,SE,144,0.0,7.0,69,0.00,,SCT055,0.02,VWS V14.00,2013-07-06 22:46:00,
2013-07-06 18:51:00,85.7,74.8,30.12,SSE,153,4.0,7.0,70,0.00,,SCT055,0.02,VWS V14.00,2013-07-06 22:51:00,
2013-07-06 18:56:00,85.7,73.9,30.12,South,170,3.0,7.0,68,0.00,,SCT055,0.02,VWS V14.00,2013-07-06 22:56:00,
2013-07-06 19:01:00,85.5,74.2,30.12,SSW,194,2.0,5.0,69,0.00,,BKN055,0.02,VWS V14.00,2013-07-06 23:01:00,
2013-07-06 19:06:00,85.5,74.2,30.12,SE,128,1.0,5.0,69,0.00,,BKN055,0.02,VWS V14.00,2013-07-06 23:06:00,
2013-07-06 19:11:00,85.3,74.4,30.12,ESE,117,0.0,7.0,70,0.00,,BKN055,0.02,VWS V14.00,2013-07-06 23:11:00,
2013-07-06 19:17:00,85.1,73.8,30.12,SE,140,0.0,7.0,69,0.00,,BKN055,0.02,VWS V14.00,2013-07-06 23:17:00,
2013-07-06 19:22:00,85.1,73.8,30.12,SSW,194,2.0,7.0,69,0.00,,BKN055,0.02,VWS V14.00,2013-07-06 23:22:00,
2013-07-06 19:27:00,85.1,74.6,30.12,South,185,0.0,7.0,71,0.00,,BKN055,0.02,VWS V14.00,2013-07-06 23:27:00,
2013-07-06 19:32:00,85.0,75.0,30.12,South,185,2.0,2.0,72,0.00,,BKN055,0.02,VWS V14.00,2013-07-06 23:32:00,
2013-07-06 19:37:00,84.8,74.8,30.12,South,185,0.0,2.0,72,0.00,,BKN055,0.02,VWS V14.00,2013-07-06 23:37:00,
2013-07-06 19:42:00,84.6,75.4,30.12,South,185,0.0,2.0,74,0.00,,BKN055,0.02,VWS V14.00,2013-07-06 23:42:00,
2013-07-06 19:47:00,84.2,75.4,30.12,South,185,0.0,2.0,75,0.00,,BKN055,0.02,VWS V14.00,2013-07-06 23:47:00,
2013-07-06 19:53:00,83.7,74.9,30.12,SSE,165,1.0,3.0,75,0.00,,BKN055,0.02,VWS V14.00,2013-07-06 23:53:00,
2013-07-06 19:58:00,83.3,74.6,30.13,SSE,157,0.0,6.0,75,0.00,,BKN055,0.02,VWS V14.00,2013-07-06 23:58:00,
2013-07-06 20:03:00,83.0,75.1,30.13,ESE,115,4.0,5.0,77,0.00,,SCT080,0.02,VWS V14.00,2013-07-07 00:03:00,
2013-07-06 20:08:00,82.4,74.9,30.13,East,90,2.0,9.0,78,0.00,,SCT080,0.02,VWS V14.00,2013-07-07 00:08:00,
2013-07-06 20:13:00,81.9,74.8,30.13,ESE,107,3.0,9.0,79,0.00,,SCT080,0.02,VWS V14.00,2013-07-07 00:13:00,
2013-07-06 20:18:00,81.4,74.6,30.13,SE,135,6.0,9.0,80,0.00,,SCT080,0.02,VWS V14.00,2013-07-07 00:18:00,
2013-07-06 20:24:00,81.2,74.4,30.13,SSE,148,2.0,9.0,80,0.00,,SCT080,0.02,VWS V14.00,2013-07-07 00:24:00,
2013-07-06 20:29:00,81.0,74.6,30.13,SSE,147,1.0,9.0,81,0.00,,SCT080,0.02,VWS V14.00,2013-07-07 00:29:00,
2013-07-06 20:34:00,80.8,74.4,30.13,SE,137,1.0,4.0,81,0.00,,SCT080,0.02,VWS V14.00,2013-07-07 00:34:00,
2013-07-06 20:39:00,80.6,74.6,30.13,ESE,114,0.0,4.0,82,0.00,,SCT080,0.02,VWS V14.00,2013-07-07 00:39:00,
2013-07-06 20:44:00,80.5,74.9,30.13,SSE,155,1.0,4.0,83,0.00,,SCT080,0.02,VWS V14.00,2013-07-07 00:44:00,
2013-07-06 20:49:00,80.3,74.7,30.13,SSE,155,0.0,4.0,83,0.00,,SCT080,0.02,VWS V14.00,2013-07-07 00:49:00,
2013-07-06 20:55:00,80.1,74.8,30.13,SE,133,0.0,4.0,84,0.00,,SCT080,0.02,VWS V14.00,2013-07-07 00:55:00,
2013-07-06 21:00:00,79.8,74.5,30.14,SSE,148,0.0,4.0,84,0.00,,SCT080,0.02,VWS V14.00,2013-07-07 01:00:00,
2013-07-06 21:05:00,79.5,74.9,30.14,SSE,150,0.0,2.0,86,0.00,,BKN060,0.02,VWS V14.00,2013-07-07 01:05:00,
2013-07-06 21:10:00,79.3,74.8,30.14,SSE,152,1.0,2.0,86,0.00,,BKN060,0.02,VWS V14.00,2013-07-07 01:10:00,
2013-07-06 21:15:00,79.1,75.2,30.15,South,188,9.0,11.0,88,0.00,,BKN060,0.02,VWS V14.00,2013-07-07 01:15:00,
2013-07-06 21:21:00,78.8,74.6,30.16,SW,217,7.0,11.0,87,0.00,,BKN060,0.02,VWS V14.00,2013-07-07 01:21:00,
2013-07-06 21:26:00,78.5,74.3,30.17,WSW,239,2.0,13.0,87,0.00,,BKN060,0.02,VWS V14.00,2013-07-07 01:26:00,
2013-07-06 21:31:00,77.9,73.0,30.17,SSE,153,10.0,13.0,85,0.00,,BKN060,0.02,VWS V14.00,2013-07-07 01:31:00,
2013-07-06 21:36:00,77.4,72.5,30.17,South,178,3.0,13.0,85,0.00,,BKN060,0.02,VWS V14.00,2013-07-07 01:36:00,
2013-07-06 21:41:00,76.9,72.4,30.17,SE,130,4.0,13.0,86,0.00,,BKN060,0.02,VWS V14.00,2013-07-07 01:41:00,
2013-07-06 21:46:00,76.6,72.8,30.18,SSE,162,2.0,13.0,88,0.00,,BKN060,0.02,VWS V14.00,2013-07-07 01:46:00,
2013-07-06 21:51:00,76.2,73.1,30.18,SSW,201,2.0,13.0,90,0.00,,BKN060,0.02,VWS V14.00,2013-07-07 01:51:00,
2013-07-06 21:57:00,75.7,72.9,30.18,SSE,162,3.0,13.0,91,0.00,,BKN060,0.02,VWS V14.00,2013-07-07 01:57:00,
2013-07-06 22:03:00,75.4,73.2,30.18,SSE,155,0.0,2.0,93,0.00,,BKN060,0.02,VWS V14.00,2013-07-07 02:03:00,
2013-07-06 22:08:00,75.2,73.4,30.17,SSE,156,0.0,2.0,94,0.00,,BKN060,0.02,VWS V14.00,2013-07-07 02:08:00,
2013-07-06 22:13:00,75.0,73.2,30.17,SSE,156,0.0,2.0,94,0.00,,BKN060,0.02,VWS V14.00,2013-07-07 02:13:00,
2013-07-06 22:18:00,74.9,73.4,30.18,SSE,156,0.0,2.0,95,0.00,,BKN060,0.02,VWS V14.00,2013-07-07 02:18:00,
2013-07-06 22:23:00,74.9,73.4,30.18,SSE,156,0.0,2.0,95,0.00,,BKN060,0.02,VWS V14.00,2013-07-07 02:23:00,
2013-07-06 22:28:00,74.8,73.3,30.18,SSE,156,0.0,2.0,95,0.00,,BKN060,0.02,VWS V14.00,2013-07-07 02:28:00,
2013-07-06 22:33:00,74.7,73.5,30.18,SSE,156,0.0,0.0,96,0.00,,BKN060,0.02,VWS V14.00,2013-07-07 02:33:00,
2013-07-06 22:39:00,74.6,73.4,30.18,SSE,156,0.0,0.0,96,0.00,,BKN060,0.02,VWS V14.00,2013-07-07 02:39:00,
2013-07-06 22:44:00,74.6,73.7,30.18,SSE,156,0.0,0.0,97,0.00,,BKN060,0.02,VWS V14.00,2013-07-07 02:44:00,
2013-07-06 22:49:00,74.6,73.7,30.18,SSE,156,0.0,0.0,97,0.00,,BKN060,0.02,VWS V14.00,2013-07-07 02:49:00,
2013-07-06 22:54:00,74.5,73.6,30.18,SSE,156,0.0,0.0,97,0.00,,BKN060,0.02,VWS V14.00,2013-07-07 02:54:00,
2013-07-06 22:59:00,74.4,73.5,30.18,SSE,156,0.0,0.0,97,0.00,,BKN060,0.02,VWS V14.00,2013-07-07 02:59:00,
2013-07-06 23:04:00,74.5,73.6,30.18,SSE,156,0.0,0.0,97,0.00,,BKN060,0.02,VWS V14.00,2013-07-07 03:04:00,
2013-07-06 23:09:00,74.4,73.5,30.18,SSE,156,0.0,0.0,97,0.00,,BKN060,0.02,VWS V14.00,2013-07-07 03:09:00,
2013-07-06 23:14:00,74.4,73.8,30.18,SSE,156,0.0,0.0,98,0.00,,BKN060,0.02,VWS V14.00,2013-07-07 03:14:00,
2013-07-06 23:19:00,74.5,73.9,30.18,SSE,156,0.0,1.0,98,0.00,,BKN060,0.02,VWS V14.00,2013-07-07 03:19:00,
2013-07-06 23:25:00,74.5,73.9,30.18,SSE,155,7.0,7.0,98,0.00,,BKN060,0.02,VWS V14.00,2013-07-07 03:25:00,
2013-07-06 23:30:00,74.5,73.9,30.18,SSE,149,2.0,9.0,98,0.00,,BKN060,0.02,VWS V14.00,2013-07-07 03:30:00,
2013-07-06 23:35:00,74.5,73.9,30.19,SW,223,0.0,4.0,98,0.00,,BKN060,0.02,VWS V14.00,2013-07-07 03:35:00,
2013-07-06 23:40:00,74.4,73.8,30.18,SSW,209,1.0,4.0,98,0.00,,BKN060,0.02,VWS V14.00,2013-07-07 03:40:00,
2013-07-06 23:45:00,74.4,73.8,30.19,South,185,1.0,4.0,98,0.00,,BKN060,0.02,VWS V14.00,2013-07-07 03:45:00,
2013-07-06 23:50:00,74.4,74.1,30.19,SSW,207,0.0,6.0,99,0.00,,BKN060,0.02,VWS V14.00,2013-07-07 03:50:00,
2013-07-06 23:55:00,74.3,74.0,30.18,SSE,152,0.0,6.0,99,0.02,,BKN060,0.04,VWS V14.00,2013-07-07 03:55:00,